Time;durP1;ratioP1;P1;durP2;ratioP2;P2;SDS_P1;SDS_P2;PMS_P1;PMS_P2;Temp;Humidity;BMP_temperature;BMP_pressure;BME280_temperature;BME280_humidity;BME280_pressure;Samples;Min_cycle;Max_cycle;Signal;HPM_P1;HPM_P2
2022/03/04 00:01:37;;;;;;;14.37;9.57;;;1.10;54.00;;;;;;5084438;28;20178;-75
2022/03/04 00:04:03;;;;;;;20.33;9.10;;;1.10;99.90;;;;;;5093682;28;20214;-75
2022/03/04 00:06:28;;;;;;;14.20;8.80;;;1.00;1.00;;;;;;5097184;28;20205;-74
2022/03/04 00:08:54;;;;;;;12.47;8.93;;;1.00;1.00;;;;;;5095227;28;20170;-74
2022/03/04 00:11:20;;;;;;;13.20;9.23;;;1.00;1.00;;;;;;5088718;28;20237;-74
2022/03/04 00:13:46;;;;;;;15.83;9.13;;;0.90;1.00;;;;;;5073067;28;20185;-74
2022/03/04 00:16:11;;;;;;;13.77;9.20;;;0.90;1.00;;;;;;5074282;28;20185;-74
2022/03/04 00:18:37;;;;;;;18.67;8.30;;;0.90;1.00;;;;;;5074221;28;20206;-74
2022/03/04 00:21:03;;;;;;;11.30;8.37;;;0.80;99.90;;;;;;5077359;28;20627;-74
2022/03/04 00:23:29;;;;;;;11.27;8.07;;;0.90;1.00;;;;;;5094450;28;20201;-75
2022/03/04 00:25:55;;;;;;;12.23;8.80;;;0.80;99.90;;;;;;5092991;28;20240;-73
2022/03/04 00:28:20;;;;;;;13.90;9.13;;;0.80;1.00;;;;;;5094226;28;20284;-74
2022/03/04 00:30:46;;;;;;;9.30;7.37;;;0.80;1.00;;;;;;5092091;28;20169;-75
2022/03/04 00:33:11;;;;;;;12.63;8.50;;;0.80;1.00;;;;;;5074034;28;20193;-75
2022/03/04 00:35:37;;;;;;;10.47;8.03;;;0.70;99.90;;;;;;5074213;28;20189;-74
2022/03/04 00:38:02;;;;;;;11.23;8.03;;;0.70;1.00;;;;;;5072558;28;20205;-75
2022/03/04 00:40:28;;;;;;;14.20;8.77;;;0.70;99.90;;;;;;5072581;28;20671;-74
2022/03/04 00:42:54;;;;;;;13.93;9.70;;;0.60;1.00;;;;;;5092506;28;20255;-74
2022/03/04 00:45:19;;;;;;;13.90;8.73;;;0.60;1.00;;;;;;5094270;28;20197;-75
2022/03/04 00:47:45;;;;;;;15.00;10.30;;;0.50;1.00;;;;;;5092566;28;20209;-74
2022/03/04 00:50:10;;;;;;;14.50;9.77;;;0.40;1.00;;;;;;5092662;28;20587;-75
2022/03/04 00:52:36;;;;;;;16.37;9.33;;;0.40;1.00;;;;;;5076578;28;20653;-74
2022/03/04 00:55:03;;;;;;;15.83;9.87;;;0.30;1.00;;;;;;5072913;28;20175;-74
2022/03/04 00:57:28;;;;;;;16.30;10.43;;;0.30;1.00;;;;;;5072265;28;20195;-75
2022/03/04 00:59:54;;;;;;;14.47;10.13;;;0.30;99.90;;;;;;5073626;28;20189;-74
2022/03/04 01:02:19;;;;;;;17.50;9.80;;;0.30;99.90;;;;;;5087588;28;20265;-75
2022/03/04 01:04:45;;;;;;;15.43;10.77;;;0.30;99.90;;;;;;5093482;28;20264;-75
2022/03/04 01:07:10;;;;;;;15.17;10.40;;;0.30;99.90;;;;;;5092316;28;20271;-74
2022/03/04 01:09:36;;;;;;;15.43;10.03;;;0.30;99.90;;;;;;5093872;28;20173;-74
2022/03/04 01:12:02;;;;;;;18.00;10.23;;;0.30;99.90;;;;;;5080396;28;20617;-74
2022/03/04 01:14:28;;;;;;;15.33;10.10;;;0.20;1.00;;;;;;5073522;28;20259;-74
2022/03/04 01:16:53;;;;;;;13.67;9.97;;;0.20;9.40;;;;;;5072134;28;20245;-75
2022/03/04 01:19:19;;;;;;;15.83;10.13;;;0.20;1.00;;;;;;5081847;28;20650;-75
2022/03/04 01:21:44;;;;;;;16.23;11.17;;;0.20;1.00;;;;;;5093527;28;20830;-75
2022/03/04 01:24:10;;;;;;;18.47;11.37;;;0.10;1.00;;;;;;5093807;28;20667;-75
2022/03/04 01:26:36;;;;;;;16.00;11.07;;;0.10;99.90;;;;;;5093175;28;20715;-75
2022/03/04 01:29:01;;;;;;;14.60;9.93;;;0.10;1.00;;;;;;5087715;28;20178;-75
2022/03/04 01:31:27;;;;;;;16.60;10.47;;;0.10;1.00;;;;;;5073150;28;20174;-75
2022/03/04 01:33:52;;;;;;;15.03;9.77;;;0.10;1.00;;;;;;5071770;28;20661;-75
2022/03/04 01:36:18;;;;;;;16.97;10.80;;;0.00;99.90;;;;;;5071718;28;20207;-75
2022/03/04 01:38:44;;;;;;;17.10;10.53;;;0.00;99.90;;;;;;5075813;28;20218;-75
2022/03/04 01:41:09;;;;;;;14.57;10.17;;;0.00;99.90;;;;;;5093376;28;20175;-75
2022/03/04 01:43:35;;;;;;;16.33;9.97;;;0.00;1.00;;;;;;5093463;28;20181;-75
2022/03/04 01:46:12;;;;;;;14.70;10.60;;;0.00;1.00;;;;;;5093313;28;20205;-74
2022/03/04 01:48:39;;;;;;;15.27;9.90;;;-0.10;1.00;;;;;;5094877;28;20190;-75
2022/03/04 01:51:04;;;;;;;17.47;11.13;;;-0.10;1.00;;;;;;5076993;28;20174;-75
2022/03/04 01:53:30;;;;;;;17.13;10.10;;;-0.10;1.00;;;;;;5074985;28;20173;-74
2022/03/04 01:55:55;;;;;;;15.47;9.50;;;-0.10;1.00;;;;;;5072386;28;20204;-74
2022/03/04 01:58:21;;;;;;;16.33;11.03;;;-0.20;1.00;;;;;;5071534;28;20225;-75
2022/03/04 02:00:46;;;;;;;16.23;9.80;;;-0.20;1.00;;;;;;5091809;28;20717;-74
2022/03/04 02:03:12;;;;;;;16.67;9.50;;;-0.30;1.00;;;;;;5092272;28;20189;-75
2022/03/04 02:05:37;;;;;;;15.07;10.30;;;-0.20;1.00;;;;;;5109260;28;20197;-75
2022/03/04 02:08:03;;;;;;;18.73;10.47;;;-0.30;1.00;;;;;;5114661;28;20563;-74
2022/03/04 02:10:29;;;;;;;16.47;11.13;;;-0.30;1.00;;;;;;5099490;28;20250;-74
2022/03/04 02:12:54;;;;;;;16.03;10.30;;;-0.30;1.00;;;;;;5096359;28;20203;-74
2022/03/04 02:15:20;;;;;;;12.40;9.47;;;-0.30;1.00;;;;;;5095949;28;20179;-75
2022/03/04 02:17:46;;;;;;;15.93;10.53;;;-0.30;1.00;;;;;;5096628;28;20213;-74
2022/03/04 02:20:11;;;;;;;14.47;10.13;;;-0.40;1.00;;;;;;5103588;28;20189;-75
2022/03/04 02:22:37;;;;;;;16.73;10.20;;;-0.40;1.00;;;;;;5096812;28;20272;-75
2022/03/04 02:25:05;;;;;;;15.90;10.33;;;-0.40;1.00;;;;;;5097944;28;20182;-75
2022/03/04 02:27:32;;;;;;;15.63;10.23;;;-0.40;1.00;;;;;;5097619;28;20199;-75
2022/03/04 02:29:58;;;;;;;13.83;9.17;;;-0.50;1.00;;;;;;5085978;28;20223;-75
2022/03/04 02:32:23;;;;;;;14.03;10.07;;;-0.50;1.00;;;;;;5078442;28;20174;-75
2022/03/04 02:34:49;;;;;;;15.50;10.83;;;-0.50;1.00;;;;;;5077564;28;20202;-75
2022/03/04 02:37:15;;;;;;;16.47;10.23;;;-0.60;1.00;;;;;;5077059;28;20540;-74
2022/03/04 02:39:41;;;;;;;16.07;10.50;;;-0.60;1.00;;;;;;5085925;28;20181;-75
2022/03/04 02:42:06;;;;;;;15.80;10.10;;;-0.60;1.00;;;;;;5097615;28;20180;-75
2022/03/04 02:44:32;;;;;;;15.20;9.73;;;-0.60;1.00;;;;;;5096076;28;20189;-75
2022/03/04 02:46:57;;;;;;;14.57;10.10;;;-0.60;1.00;;;;;;5096014;28;20220;-75
2022/03/04 02:49:23;;;;;;;14.90;10.67;;;-0.70;1.00;;;;;;5090574;28;20588;-73
2022/03/04 02:51:48;;;;;;;17.10;10.37;;;-0.70;55.20;;;;;;5076836;28;20710;-75
2022/03/04 02:54:14;;;;;;;22.70;10.77;;;-0.70;64.20;;;;;;5077419;28;20216;-75
2022/03/04 02:56:40;;;;;;;16.37;10.53;;;-0.70;92.70;;;;;;5076682;28;20221;-75
2022/03/04 02:59:05;;;;;;;17.93;11.20;;;-0.70;99.90;;;;;;5080723;28;20253;-75
2022/03/04 03:01:31;;;;;;;17.43;11.67;;;-0.80;99.90;;;;;;5096638;28;20546;-75
2022/03/04 03:03:56;;;;;;;14.67;10.90;;;-0.80;99.90;;;;;;5094814;28;20735;-75
2022/03/04 03:06:22;;;;;;;18.93;11.03;;;-0.80;98.80;;;;;;5096038;28;20292;-75
2022/03/04 03:08:48;;;;;;;17.90;11.00;;;-0.90;94.60;;;;;;5093639;28;20200;-75
2022/03/04 03:11:14;;;;;;;15.83;10.93;;;-0.90;99.90;;;;;;5074535;28;20578;-75
2022/03/04 03:13:39;;;;;;;13.50;10.13;;;-0.90;99.90;;;;;;5075701;28;20213;-75
2022/03/04 03:16:05;;;;;;;17.50;10.60;;;-1.00;99.90;;;;;;5074577;28;20191;-75
2022/03/04 03:18:30;;;;;;;16.47;10.10;;;-1.00;99.90;;;;;;5075220;28;20289;-74
2022/03/04 03:20:56;;;;;;;14.57;10.20;;;-1.00;99.90;;;;;;5094486;28;20655;-75
2022/03/04 03:23:21;;;;;;;13.83;9.70;;;-1.00;99.90;;;;;;5095877;28;20181;-73
2022/03/04 03:25:47;;;;;;;15.77;10.00;;;-1.00;99.90;;;;;;5095618;28;20231;-75
2022/03/04 03:28:13;;;;;;;14.90;10.43;;;-1.00;99.90;;;;;;5095435;28;20198;-75
2022/03/04 03:30:38;;;;;;;14.90;10.37;;;-1.10;99.90;;;;;;5076547;28;20243;-75
2022/03/04 03:33:04;;;;;;;15.80;10.73;;;-1.00;99.90;;;;;;5076139;28;20567;-75
2022/03/04 03:35:29;;;;;;;15.00;10.27;;;-1.10;99.90;;;;;;5073909;28;20192;-75
2022/03/04 03:37:55;;;;;;;16.27;10.93;;;-1.10;99.90;;;;;;5075395;28;20568;-75
2022/03/04 03:40:20;;;;;;;19.10;11.00;;;-1.10;99.90;;;;;;5091418;28;20190;-74
2022/03/04 03:42:46;;;;;;;16.33;10.37;;;-1.20;99.90;;;;;;5096953;28;20185;-75
2022/03/04 03:45:12;;;;;;;17.40;10.73;;;-1.20;99.90;;;;;;5095158;28;20740;-75
2022/03/04 03:47:39;;;;;;;13.93;10.43;;;-1.20;99.90;;;;;;5095129;28;20201;-75
2022/03/04 03:50:09;;;;;;;16.30;10.53;;;-1.20;99.90;;;;;;5080047;28;20224;-75
2022/03/04 03:52:35;;;;;;;17.50;10.97;;;-1.20;99.90;;;;;;5076822;28;20662;-75
2022/03/04 03:55:00;;;;;;;16.17;10.57;;;-1.30;99.90;;;;;;5094879;28;20268;-74
2022/03/04 03:57:26;;;;;;;16.03;10.90;;;-1.30;99.90;;;;;;5095133;28;20239;-75
2022/03/04 03:59:51;;;;;;;17.23;11.47;;;-1.30;99.90;;;;;;5083110;28;20184;-75
2022/03/04 04:02:17;;;;;;;16.13;10.57;;;-1.30;99.90;;;;;;5075243;28;20230;-75
2022/03/04 04:04:44;;;;;;;17.27;11.20;;;-1.40;99.90;;;;;;5073348;28;20181;-75
2022/03/04 04:07:11;;;;;;;17.03;11.47;;;-1.40;99.90;;;;;;5074395;28;20210;-74
2022/03/04 04:09:37;;;;;;;15.73;11.07;;;-1.40;99.90;;;;;;5083302;28;20641;-75
2022/03/04 04:12:03;;;;;;;16.40;11.13;;;-1.40;99.90;;;;;;5093370;28;20184;-75
2022/03/04 04:14:28;;;;;;;16.00;10.47;;;-1.40;99.90;;;;;;5093348;28;20179;-75
2022/03/04 04:16:55;;;;;;;16.13;11.30;;;-1.40;99.90;;;;;;5094385;28;20201;-75
2022/03/04 04:19:22;;;;;;;17.50;11.07;;;-1.50;99.90;;;;;;5087733;28;20189;-75
2022/03/04 04:21:47;;;;;;;19.27;11.83;;;-1.50;99.90;;;;;;5074059;28;20195;-74
2022/03/04 04:24:13;;;;;;;15.50;10.17;;;-1.50;99.90;;;;;;5074162;28;20177;-75
2022/03/04 04:26:39;;;;;;;17.50;11.87;;;-1.50;99.90;;;;;;5073979;28;20635;-74
2022/03/04 04:29:05;;;;;;;21.70;11.43;;;-1.50;99.90;;;;;;5077686;28;20180;-75
2022/03/04 04:31:32;;;;;;;14.97;11.10;;;-1.50;99.90;;;;;;5094302;28;20602;-75
2022/03/04 04:33:59;;;;;;;15.77;11.40;;;-1.50;99.90;;;;;;5094267;28;20165;-75
2022/03/04 04:36:25;;;;;;;19.80;11.90;;;-1.50;99.90;;;;;;5092768;28;20260;-74
2022/03/04 04:38:50;;;;;;;16.47;11.60;;;-1.50;99.90;;;;;;5090651;28;20218;-75
2022/03/04 04:41:16;;;;;;;19.73;12.67;;;-1.50;99.90;;;;;;5072521;28;20196;-74
2022/03/04 04:43:41;;;;;;;17.70;11.33;;;-1.50;99.90;;;;;;5073759;28;20184;-74
2022/03/04 04:46:08;;;;;;;17.27;11.57;;;-1.50;99.90;;;;;;5073673;28;20236;-74
2022/03/04 04:48:34;;;;;;;17.87;11.80;;;-1.50;99.90;;;;;;5073565;28;20247;-74
2022/03/04 04:50:59;;;;;;;16.80;11.13;;;-1.50;99.90;;;;;;5092696;28;20196;-74
2022/03/04 04:53:28;;;;;;;19.23;12.17;;;-1.50;99.90;;;;;;5092529;28;20182;-73
2022/03/04 04:55:54;;;;;;;16.40;11.23;;;-1.60;99.90;;;;;;5093706;28;20303;-74
2022/03/04 04:58:20;;;;;;;18.53;11.63;;;-1.60;99.90;;;;;;5092511;28;20312;-74
2022/03/04 05:00:50;;;;;;;20.17;12.63;;;-1.60;99.90;;;;;;5075900;28;20627;-74
2022/03/04 05:03:16;;;;;;;18.37;11.87;;;-1.60;99.90;;;;;;5072138;28;20591;-74
2022/03/04 05:05:42;;;;;;;19.30;12.33;;;-1.70;99.90;;;;;;5073725;28;20203;-73
2022/03/04 05:08:08;;;;;;;16.83;11.70;;;-1.60;99.90;;;;;;5075289;28;20259;-73
2022/03/04 05:10:34;;;;;;;16.63;11.77;;;-1.70;99.90;;;;;;5090969;28;20200;-73
2022/03/04 05:12:59;;;;;;;20.03;12.67;;;-1.70;99.90;;;;;;5094074;28;20173;-73
2022/03/04 05:15:25;;;;;;;18.87;11.87;;;-1.70;99.90;;;;;;5093250;28;20212;-74
2022/03/04 05:17:51;;;;;;;20.50;12.97;;;-1.70;99.90;;;;;;5093266;28;20191;-74
2022/03/04 05:20:17;;;;;;;19.13;12.30;;;-1.70;99.90;;;;;;5076434;28;20232;-75
2022/03/04 05:22:43;;;;;;;18.50;12.03;;;-1.70;99.90;;;;;;5080729;28;20195;-73
2022/03/04 05:25:09;;;;;;;17.60;11.10;;;-1.80;99.90;;;;;;5079924;28;20264;-74
2022/03/04 05:27:34;;;;;;;18.37;10.97;;;-1.80;99.90;;;;;;5081299;28;20586;-74
2022/03/04 05:30:00;;;;;;;17.57;11.77;;;-1.70;99.90;;;;;;5085684;28;20202;-74
2022/03/04 05:32:25;;;;;;;19.17;11.50;;;-1.80;99.90;;;;;;5082670;28;20165;-74
2022/03/04 05:34:51;;;;;;;18.67;12.67;;;-1.80;99.90;;;;;;5081490;28;20186;-75
2022/03/04 05:37:16;;;;;;;19.40;12.50;;;-1.80;99.90;;;;;;5092936;28;20231;-75
2022/03/04 05:39:42;;;;;;;19.57;12.23;;;-1.80;99.90;;;;;;5092266;28;20213;-74
2022/03/04 05:42:07;;;;;;;18.30;12.10;;;-1.80;99.90;;;;;;5092984;28;20261;-74
2022/03/04 05:44:33;;;;;;;19.23;11.60;;;-1.80;99.90;;;;;;5092954;28;20334;-73
2022/03/04 05:46:58;;;;;;;19.43;12.77;;;-1.80;99.90;;;;;;5091567;28;20214;-75
2022/03/04 05:49:24;;;;;;;19.80;13.13;;;-1.80;99.90;;;;;;5084941;28;20181;-73
2022/03/04 05:51:50;;;;;;;19.03;12.30;;;-1.80;99.90;;;;;;5072052;28;20173;-75
2022/03/04 05:54:16;;;;;;;19.67;11.70;;;-1.90;99.90;;;;;;5078274;28;20175;-74
2022/03/04 05:56:41;;;;;;;17.27;11.20;;;-1.90;99.90;;;;;;5091572;28;20583;-74
2022/03/04 05:59:07;;;;;;;16.73;11.20;;;-2.00;99.90;;;;;;5089127;28;20613;-75
2022/03/04 06:01:32;;;;;;;19.70;12.43;;;-2.00;99.90;;;;;;5073855;28;20186;-73
2022/03/04 06:03:58;;;;;;;16.93;11.97;;;-2.00;99.90;;;;;;5071294;28;20218;-76
2022/03/04 06:06:25;;;;;;;21.53;12.33;;;-2.00;99.90;;;;;;5072532;28;20199;-76
2022/03/04 06:08:51;;;;;;;17.63;12.00;;;-2.00;99.90;;;;;;5070961;28;20539;-76
2022/03/04 06:11:17;;;;;;;22.33;13.00;;;-2.00;99.90;;;;;;5102422;23;20240;-78
2022/03/04 06:13:42;;;;;;;19.10;12.40;;;-2.00;99.90;;;;;;5095117;28;20151;-79
2022/03/04 06:16:08;;;;;;;20.33;11.30;;;-2.10;99.90;;;;;;5100019;28;20697;-79
2022/03/04 06:18:33;;;;;;;21.03;12.80;;;-2.10;99.90;;;;;;5102828;28;20194;-78
2022/03/04 06:20:59;;;;;;;18.73;13.07;;;-2.00;99.90;;;;;;5098144;28;20201;-78
2022/03/04 06:23:25;;;;;;;20.73;12.20;;;-2.00;99.90;;;;;;5098549;28;20172;-78
2022/03/04 06:25:50;;;;;;;22.70;13.50;;;-2.00;99.90;;;;;;5097443;28;20254;-78
2022/03/04 06:28:16;;;;;;;21.27;13.17;;;-2.00;99.90;;;;;;5091863;28;20645;-78
2022/03/04 06:30:42;;;;;;;19.87;12.73;;;-2.10;99.90;;;;;;5071392;28;20181;-78
2022/03/04 06:35:53;;;;;;;19.50;13.07;;;-2.10;99.90;;;;;;5076919;28;20182;-76
2022/03/04 06:38:19;;;;;;;21.07;13.23;;;-2.00;99.90;;;;;;5075064;28;20180;-79
2022/03/04 06:40:46;;;;;;;23.53;12.37;;;-2.10;99.90;;;;;;5072550;28;20178;-78
2022/03/04 06:43:13;;;;;;;20.73;13.53;;;-2.00;99.90;;;;;;5072307;28;20174;-78
2022/03/04 06:45:41;;;;;;;17.27;11.40;;;-2.00;99.90;;;;;;5073412;28;20730;-78
2022/03/04 06:48:07;;;;;;;20.77;12.73;;;-2.10;99.90;;;;;;5073451;28;20167;-78
2022/03/04 06:50:33;;;;;;;19.80;12.47;;;-2.00;99.90;;;;;;5073603;28;20166;-77
2022/03/04 06:52:58;;;;;;;20.13;12.63;;;-2.10;99.90;;;;;;5074291;28;20197;-78
2022/03/04 06:55:24;;;;;;;19.50;12.40;;;-2.10;99.90;;;;;;5076505;28;20176;-78
2022/03/04 06:57:51;;;;;;;19.80;12.67;;;-2.00;99.90;;;;;;5076657;28;20181;-78
2022/03/04 07:00:17;;;;;;;18.60;12.30;;;-2.10;99.90;;;;;;5078750;28;20202;-78
2022/03/04 07:02:43;;;;;;;21.97;11.77;;;-2.00;99.90;;;;;;5078431;28;20217;-78
2022/03/04 07:05:09;;;;;;;26.33;12.50;;;-2.00;99.90;;;;;;5077899;28;20538;-76
2022/03/04 07:07:36;;;;;;;27.70;12.93;;;-2.00;99.90;;;;;;5077776;28;20187;-78
2022/03/04 07:10:03;;;;;;;22.40;12.27;;;-1.90;99.90;;;;;;5078083;28;20172;-79
2022/03/04 07:12:29;;;;;;;18.93;13.23;;;-1.90;99.90;;;;;;5075936;28;20347;-79
2022/03/04 07:14:54;;;;;;;25.63;12.93;;;-1.90;99.90;;;;;;5075594;28;20201;-78
2022/03/04 07:17:20;;;;;;;21.83;13.80;;;-1.90;99.90;;;;;;5076192;28;20598;-78
2022/03/04 07:19:46;;;;;;;21.87;13.43;;;-1.80;99.90;;;;;;5074899;28;20542;-77
2022/03/04 07:22:11;;;;;;;19.83;13.33;;;-1.80;99.90;;;;;;5073476;28;20677;-78
2022/03/04 07:24:37;;;;;;;21.30;13.17;;;-1.70;99.90;;;;;;5074008;28;20179;-78
2022/03/04 07:27:03;;;;;;;23.27;14.47;;;-1.70;99.90;;;;;;5075853;28;20232;-78
2022/03/04 07:29:29;;;;;;;19.97;13.60;;;-1.60;99.90;;;;;;5075379;28;20172;-78
2022/03/04 07:31:55;;;;;;;22.70;14.00;;;-1.60;99.90;;;;;;5075144;28;20202;-78
2022/03/04 07:34:22;;;;;;;24.03;15.27;;;-1.60;99.90;;;;;;5075163;28;20173;-78
2022/03/04 07:36:47;;;;;;;23.03;14.37;;;-1.50;99.90;;;;;;5075035;28;20176;-77
2022/03/04 07:39:13;;;;;;;22.57;14.43;;;-1.50;99.90;;;;;;5075871;28;20179;-78
2022/03/04 07:41:39;;;;;;;22.50;14.57;;;-1.40;99.90;;;;;;5075207;28;20278;-78
2022/03/04 07:44:05;;;;;;;21.07;14.63;;;-1.40;99.90;;;;;;5075282;28;20204;-77
2022/03/04 07:46:30;;;;;;;22.80;14.00;;;-1.30;99.90;;;;;;5073561;28;20756;-77
2022/03/04 07:48:56;;;;;;;22.40;14.00;;;-1.20;99.90;;;;;;5073618;28;20220;-77
2022/03/04 07:51:21;;;;;;;24.07;15.00;;;-1.20;99.90;;;;;;5076327;28;20671;-78
2022/03/04 07:53:47;;;;;;;25.77;15.20;;;-1.10;99.90;;;;;;5076829;28;20160;-78
2022/03/04 07:56:13;;;;;;;23.57;14.27;;;-1.10;99.90;;;;;;5075089;28;20188;-78
2022/03/04 07:58:38;;;;;;;23.53;15.27;;;-1.00;99.90;;;;;;5074903;28;20258;-78
2022/03/04 08:01:04;;;;;;;23.20;14.67;;;-0.90;99.90;;;;;;5075244;28;20558;-78
2022/03/04 08:03:29;;;;;;;21.63;13.97;;;-0.90;99.90;;;;;;5074978;28;20177;-78
2022/03/04 08:05:55;;;;;;;24.77;15.53;;;-0.80;99.90;;;;;;5072976;28;20197;-78
2022/03/04 08:08:21;;;;;;;25.33;15.17;;;-0.70;99.90;;;;;;5073116;28;20669;-78
2022/03/04 08:10:46;;;;;;;25.13;15.20;;;-0.60;99.90;;;;;;5072575;28;20169;-78
2022/03/04 08:13:12;;;;;;;25.47;15.37;;;-0.50;99.90;;;;;;5072771;28;20162;-78
2022/03/04 08:15:37;;;;;;;23.40;14.07;;;-0.40;99.90;;;;;;5074163;28;20175;-78
2022/03/04 08:18:03;;;;;;;25.90;15.73;;;-0.30;99.90;;;;;;5072454;28;20181;-78
2022/03/04 08:20:29;;;;;;;27.60;15.03;;;-0.20;99.90;;;;;;5073907;28;20181;-78
2022/03/04 08:22:56;;;;;;;24.17;14.77;;;0.00;99.90;;;;;;5073709;28;20187;-78
2022/03/04 08:25:21;;;;;;;23.10;15.47;;;0.00;99.90;;;;;;5073975;28;20197;-78
2022/03/04 08:27:47;;;;;;;22.20;14.50;;;0.10;99.90;;;;;;5072392;28;20186;-78
2022/03/04 08:30:13;;;;;;;22.63;14.70;;;0.30;99.90;;;;;;5072223;28;20304;-78
2022/03/04 08:32:40;;;;;;;20.80;15.07;;;0.40;99.90;;;;;;5072268;28;20193;-78
2022/03/04 08:35:06;;;;;;;21.87;14.53;;;0.50;99.90;;;;;;5073428;28;20593;-78
2022/03/04 08:37:32;;;;;;;19.43;14.30;;;0.70;99.90;;;;;;5072136;28;20177;-78
2022/03/04 08:39:58;;;;;;;22.43;14.50;;;0.80;99.90;;;;;;5073720;28;20572;-78
2022/03/04 08:42:24;;;;;;;21.90;14.77;;;1.00;99.90;;;;;;5073313;28;20201;-78
2022/03/04 08:44:52;;;;;;;21.90;14.00;;;1.20;99.90;;;;;;5073872;28;20170;-79
2022/03/04 08:47:18;;;;;;;21.80;14.17;;;1.30;99.90;;;;;;5073434;28;20187;-78
2022/03/04 08:49:43;;;;;;;19.80;13.03;;;1.50;50.60;;;;;;5072021;28;20180;-78
2022/03/04 08:52:09;;;;;;;27.40;14.33;;;1.60;1.00;;;;;;5073076;28;20277;-78
2022/03/04 08:54:34;;;;;;;17.70;13.30;;;1.70;1.00;;;;;;5071881;28;20211;-77
2022/03/04 08:57:00;;;;;;;22.47;12.93;;;1.80;99.90;;;;;;5071862;28;20186;-78
2022/03/04 08:59:25;;;;;;;24.07;13.97;;;1.90;20.50;;;;;;5073212;28;20167;-78
2022/03/04 09:01:51;;;;;;;19.40;13.00;;;2.10;1.00;;;;;;5073061;28;20276;-78
2022/03/04 09:04:17;;;;;;;23.50;13.80;;;2.20;1.00;;;;;;5073050;28;20534;-78
2022/03/04 09:06:44;;;;;;;22.30;13.80;;;2.30;99.90;;;;;;5072984;28;20215;-78
2022/03/04 09:09:09;;;;;;;20.17;14.33;;;2.50;99.90;;;;;;5071664;28;20190;-78
2022/03/04 09:11:35;;;;;;;25.73;13.87;;;2.70;99.90;;;;;;5072735;28;20230;-77
2022/03/04 09:14:02;;;;;;;22.23;14.40;;;2.80;1.00;;;;;;5072948;28;20171;-78
2022/03/04 09:16:30;;;;;;;18.63;12.90;;;2.90;1.00;;;;;;5072633;28;20167;-77
2022/03/04 09:18:56;;;;;;;17.90;12.23;;;3.10;1.00;;;;;;5071703;28;20174;-78
2022/03/04 09:21:22;;;;;;;19.23;13.23;;;3.10;99.90;;;;;;5072829;28;20240;-77
2022/03/04 09:23:48;;;;;;;24.43;14.13;;;3.20;99.90;;;;;;5073033;28;20202;-77
2022/03/04 09:26:13;;;;;;;22.93;13.80;;;3.30;99.90;;;;;;5072765;28;20199;-77
2022/03/04 09:28:39;;;;;;;21.20;12.77;;;3.40;99.90;;;;;;5073295;28;20245;-78
2022/03/04 09:31:05;;;;;;;22.27;14.37;;;3.60;99.90;;;;;;5071483;28;20240;-78
2022/03/04 09:33:31;;;;;;;19.83;14.00;;;3.60;99.90;;;;;;5072835;28;20171;-77
2022/03/04 09:35:56;;;;;;;21.67;14.30;;;3.70;99.90;;;;;;5073073;28;20166;-76
2022/03/04 09:38:22;;;;;;;22.30;14.77;;;3.90;1.00;;;;;;5072924;28;20595;-77
2022/03/04 09:40:49;;;;;;;23.23;13.77;;;4.10;99.90;;;;;;5072822;28;20334;-77
2022/03/04 09:43:18;;;;;;;20.63;13.77;;;4.20;99.90;;;;;;5072888;28;20171;-77
2022/03/04 09:45:46;;;;;;;21.83;14.20;;;4.30;99.90;;;;;;5072552;28;20214;-77
2022/03/04 09:48:13;;;;;;;22.30;14.07;;;4.40;99.90;;;;;;5072567;28;20186;-77
2022/03/04 09:50:38;;;;;;;21.17;14.90;;;4.40;99.90;;;;;;5071270;28;20589;-78
2022/03/04 09:53:11;;;;;;;22.87;14.57;;;4.50;1.00;;;;;;5071317;28;20175;-77
2022/03/04 09:55:40;;;;;;;25.63;15.13;;;4.50;9.60;;;;;;5071628;28;20167;-77
2022/03/04 09:58:14;;;;;;;23.37;15.37;;;4.70;1.00;;;;;;5071979;28;20680;-77
2022/03/04 10:00:43;;;;;;;22.10;15.90;;;4.80;1.00;;;;;;5073070;28;20174;-77
2022/03/04 10:03:30;;;;;;;24.07;16.07;;;4.80;1.00;;;;;;5071736;28;20178;-77
2022/03/04 10:05:58;;;;;;;21.63;14.97;;;5.00;1.00;;;;;;5073258;28;20549;-77
2022/03/04 10:08:24;;;;;;;26.90;15.97;;;5.10;1.00;;;;;;5073645;28;20171;-78
2022/03/04 10:10:51;;;;;;;22.87;15.77;;;5.10;1.00;;;;;;5072578;28;20189;-77
2022/03/04 10:13:17;;;;;;;23.33;15.37;;;5.30;99.90;;;;;;5072536;28;20198;-77
2022/03/04 10:15:55;;;;;;;22.77;14.70;;;5.60;1.00;;;;;;5072208;28;20222;-77
2022/03/04 10:18:28;;;;;;;22.57;15.10;;;5.90;1.00;;;;;;5072186;28;20258;-77
2022/03/04 10:20:54;;;;;;;28.33;15.23;;;6.00;1.00;;;;;;5071056;28;20187;-77
2022/03/04 10:23:26;;;;;;;21.50;14.40;;;6.10;1.00;;;;;;5071223;28;20277;-77
2022/03/04 10:25:55;;;;;;;21.73;14.20;;;6.20;1.00;;;;;;5071070;28;20195;-77
2022/03/04 10:28:26;;;;;;;21.10;15.00;;;6.20;1.00;;;;;;5072640;28;20578;-77
2022/03/04 10:30:53;;;;;;;22.57;14.23;;;6.20;1.00;;;;;;5076952;28;20242;-78
2022/03/04 10:33:21;;;;;;;23.97;14.67;;;6.50;99.90;;;;;;5079555;28;20551;-79
2022/03/04 10:36:05;;;;;;;20.67;14.50;;;6.60;1.00;;;;;;5079095;28;20337;-78
2022/03/04 10:38:31;;;;;;;26.43;15.67;;;6.60;1.00;;;;;;5079534;28;20289;-78
2022/03/04 10:40:57;;;;;;;21.57;15.13;;;6.70;1.00;;;;;;5076107;28;20240;-78
2022/03/04 10:43:30;;;;;;;22.10;15.00;;;6.70;99.90;;;;;;5074510;28;20186;-78
2022/03/04 10:46:02;;;;;;;22.07;14.60;;;6.70;1.00;;;;;;5074225;28;20191;-77
2022/03/04 10:48:28;;;;;;;22.43;14.83;;;6.80;1.00;;;;;;5076193;28;20171;-79
2022/03/04 10:50:56;;;;;;;21.73;13.70;;;6.80;1.00;;;;;;5076417;28;20178;-76
2022/03/04 10:53:27;;;;;;;19.97;14.37;;;6.80;1.00;;;;;;5075004;28;20175;-75
2022/03/04 10:55:55;;;;;;;23.17;15.13;;;6.90;1.00;;;;;;5076217;28;20507;-74
2022/03/04 10:58:23;;;;;;;21.23;14.30;;;6.90;1.00;;;;;;5076476;28;20238;-77
2022/03/04 11:01:00;;;;;;;20.97;14.10;;;7.00;1.00;;;;;;5076001;28;20204;-75
2022/03/04 11:03:28;;;;;;;22.40;13.93;;;7.00;1.00;;;;;;5076591;28;20170;-76
2022/03/04 11:06:02;;;;;;;20.10;14.17;;;7.10;1.00;;;;;;5076119;28;20190;-76
2022/03/04 11:08:28;;;;;;;19.77;13.63;;;7.10;1.00;;;;;;5075822;28;20507;-76
2022/03/04 11:10:55;;;;;;;20.63;14.17;;;7.20;99.90;;;;;;5075765;28;20574;-78
2022/03/04 11:13:21;;;;;;;20.00;13.77;;;7.20;99.90;;;;;;5075786;28;20258;-77
2022/03/04 11:15:48;;;;;;;18.47;12.43;;;7.30;99.90;;;;;;5074261;28;20207;-77
2022/03/04 11:18:16;;;;;;;18.27;12.90;;;7.30;99.90;;;;;;5074681;28;20179;-78
2022/03/04 11:20:44;;;;;;;19.73;13.43;;;7.40;99.90;;;;;;5075556;28;20527;-77
2022/03/04 11:23:16;;;;;;;21.10;13.53;;;7.50;99.90;;;;;;5075349;28;20220;-77
2022/03/04 11:25:43;;;;;;;21.57;14.77;;;7.70;99.90;;;;;;5075276;28;20184;-77
2022/03/04 11:28:19;;;;;;;22.40;15.00;;;7.80;99.90;;;;;;5074013;28;20645;-77
2022/03/04 11:30:51;;;;;;;19.47;13.70;;;7.80;99.90;;;;;;5075220;28;20644;-77
2022/03/04 11:33:20;;;;;;;22.70;14.37;;;8.00;94.80;;;;;;5075484;28;20198;-77
2022/03/04 11:35:55;;;;;;;20.67;14.47;;;8.20;58.60;;;;;;5074974;28;20188;-77
2022/03/04 11:38:49;;;;;;;17.93;11.97;;;8.10;99.90;;;;;;5073563;28;20629;-78
2022/03/04 11:41:26;;;;;;;17.43;12.27;;;8.20;28.30;;;;;;5075037;28;20191;-77
2022/03/04 11:43:58;;;;;;;17.87;11.73;;;8.40;91.00;;;;;;5075082;28;20694;-77
2022/03/04 11:46:43;;;;;;;16.23;11.23;;;8.30;92.20;;;;;;5073747;28;20576;-77
2022/03/04 11:49:27;;;;;;;16.70;11.17;;;8.30;59.70;;;;;;5064235;28;20191;-77
2022/03/04 11:52:10;;;;;;;19.03;11.93;;;8.30;7.80;;;;;;5073303;28;20206;-77
2022/03/04 11:54:37;;;;;;;16.83;10.90;;;8.40;1.00;;;;;;5073387;28;20253;-77
2022/03/04 11:57:26;;;;;;;16.20;10.73;;;8.40;1.00;;;;;;5074647;28;20206;-77
2022/03/04 11:59:58;;;;;;;17.70;11.17;;;8.40;1.00;;;;;;5074357;28;20251;-78
2022/03/04 12:02:38;;;;;;;18.60;10.43;;;8.50;1.00;;;;;;5073986;28;20577;-78
2022/03/04 12:05:22;;;;;;;17.17;11.37;;;8.50;1.00;;;;;;5075503;28;20166;-77
2022/03/04 12:07:48;;;;;;;19.07;13.03;;;8.60;1.00;;;;;;5074625;28;20183;-78
2022/03/04 12:10:21;;;;;;;16.93;12.43;;;8.70;1.00;;;;;;5076076;28;20179;-78
2022/03/04 12:12:59;;;;;;;16.10;10.40;;;8.80;1.00;;;;;;5094931;22;20270;-90
2022/03/04 12:15:25;;;;;;;16.70;11.50;;;8.90;1.00;;;;;;5094193;28;20185;-90
2022/03/04 12:17:58;;;;;;;18.67;12.03;;;8.90;1.00;;;;;;5095045;28;20170;-90
2022/03/04 12:20:53;;;;;;;17.53;11.33;;;9.10;1.00;;;;;;5095409;28;20193;-90
2022/03/04 12:23:27;;;;;;;17.23;11.43;;;9.20;1.00;;;;;;5094855;28;20170;-90
2022/03/04 12:28:42;;;;;;;16.30;11.43;;;9.30;1.00;;;;;;5039243;28;20216;-78
2022/03/04 12:31:13;;;;;;;18.50;10.90;;;9.30;1.00;;;;;;5041206;28;20203;-77
2022/03/04 12:33:44;;;;;;;12.73;9.60;;;9.40;1.00;;;;;;5042228;28;20244;-77
2022/03/04 12:36:15;;;;;;;13.23;8.13;;;9.40;1.00;;;;;;5041336;28;20574;-77
2022/03/04 12:38:56;;;;;;;13.23;9.00;;;9.50;1.00;;;;;;5037702;28;20173;-78
2022/03/04 12:41:26;;;;;;;14.13;8.93;;;9.50;1.00;;;;;;5073153;22;20204;-96